LGAD

Details ICAO LGAD (PYR)
Name ANDRAVIDA
Region Greece
Timezone Europe/Athens (UTC+3.0)
Plans Departing 19
Arriving 22
Stats Elevation 55 ft / 17 m (AMSL)
Location 37.920700° 21.292600°
Runways 1
Magnetic Variation 4.275° E
Sunrise 2019-04-25 03:47:56 UTC / 2019-04-25 06:47:56 Local
Sunset 2019-04-25 17:20:04 UTC / 2019-04-25 20:20:04 Local
Advertisement - Login to hide

Runways

ID Width Length Bearing (true/mag) Surface Threshold Overrun Markings Lighting
16 148 ft / 45 m 10,313 ft / 3,143 m 164.62° / 160.35° ASPHALT 0 ft / 0 m 75 ft / 23 m APP EDGE THRESHOLD MALS
34 148 ft / 45 m 10,313 ft / 3,143 m 344.63° / 340.35° ASPHALT 0 ft / 0 m 75 ft / 23 m APP EDGE THRESHOLD CALVERT

Map

Weather


0- 5 10 15 20 25 30 35+ Temperature / °C

Clouds and Precipitation
Forecast for 2019-04-25 06:00 UTC. Updated 3 hours ago

Ground ~20,000 ft ~40,000 ft Winds

METAR

LGAD 250620Z 00000KT 9999 FEW020 SCT080 15/14 Q1022

TAF

Not found

Frequencies

Approach 120.65 MHz
Tower 122.10 MHz
Approach 121.13 MHz
Tower 120.65 MHz
Warning: Do not use this data for real-world aviation or navigation. No guarantee of current accuracy is given.